Time;durP1;ratioP1;P1;durP2;ratioP2;P2;SDS_P1;SDS_P2;PMS_P1;PMS_P2;Temp;Humidity;BMP_temperature;BMP_pressure;BME280_temperature;BME280_humidity;BME280_pressure;Samples;Min_cycle;Max_cycle;Signal;HPM_P1;HPM_P2
2023/10/25 06:20:27;;;;;;;11.25;2.88;;;;;;;12.57;70.93;98304.09;6310256;22;20015;-92
2023/10/25 06:22:55;;;;;;;6.25;2.55;;;;;;;12.56;70.72;98290.75;6338206;22;20018;-92
2023/10/25 06:25:20;;;;;;;5.95;2.80;;;;;;;12.41;70.50;98281.06;6337229;22;20002;-91
2023/10/25 06:27:46;;;;;;;10.50;2.45;;;;;;;12.72;70.50;98281.03;6307434;22;20011;-93
2023/10/25 06:30:11;;;;;;;7.93;2.83;;;;;;;12.72;70.51;98278.28;6333106;22;20006;-93
2023/10/25 06:32:37;;;;;;;6.93;2.47;;;;;;;12.69;70.40;98275.41;6333938;22;20440;-93
2023/10/25 06:35:02;;;;;;;8.50;2.90;;;;;;;12.55;70.87;98273.53;6333353;22;20010;-93
2023/10/25 06:37:28;;;;;;;7.15;2.63;;;;;;;12.57;70.97;98265.06;6305910;22;20336;-93
2023/10/25 06:39:53;;;;;;;6.88;2.65;;;;;;;12.78;70.39;98268.03;6332942;22;20026;-92
2023/10/25 06:42:19;;;;;;;12.55;2.95;;;;;;;12.76;70.24;98267.53;6305216;22;20017;-92
2023/10/25 06:44:44;;;;;;;6.50;2.58;;;;;;;12.72;70.47;98261.88;6332739;22;20022;-93
2023/10/25 06:47:10;;;;;;;5.43;2.30;;;;;;;12.93;69.81;98255.03;6306128;22;20010;-93
2023/10/25 06:49:36;;;;;;;4.13;2.47;;;;;;;12.81;70.09;98250.19;6332305;22;20007;-93
2023/10/25 06:52:01;;;;;;;12.15;2.20;;;;;;;12.90;69.73;98245.53;6333209;22;20014;-93
2023/10/25 06:54:28;;;;;;;8.50;2.70;;;;;;;12.96;69.19;98238.78;6333155;22;20013;-93
2023/10/25 06:56:53;;;;;;;7.03;2.47;;;;;;;12.76;69.71;98229.25;6333455;22;20010;-93
2023/10/25 06:59:19;;;;;;;9.10;2.67;;;;;;;12.87;69.57;98235.25;6332733;22;20093;-94
2023/10/25 07:01:48;;;;;;;6.20;2.05;;;;;;;12.83;69.48;98228.78;6333065;22;20097;-93
2023/10/25 07:04:17;;;;;;;7.10;1.83;;;;;;;13.01;69.48;98228.81;6333561;22;20086;-94
2023/10/25 07:06:45;;;;;;;5.63;2.00;;;;;;;12.90;69.50;98223.66;6332942;22;20055;-93
2023/10/25 07:09:13;;;;;;;4.35;1.70;;;;;;;12.72;70.15;98217.34;6333507;22;20261;-93
2023/10/25 07:11:39;;;;;;;5.97;1.85;;;;;;;12.96;69.68;98221.56;6333774;22;20009;-92
2023/10/25 07:14:05;;;;;;;4.53;1.88;;;;;;;13.04;69.74;98222.69;6333486;22;20006;-96
2023/10/25 07:16:30;;;;;;;7.53;2.20;;;;;;;13.04;68.99;98215.31;6332932;22;20030;-94
2023/10/25 07:18:55;;;;;;;5.03;1.80;;;;;;;13.25;69.02;98211.16;6306247;22;20452;-94
2023/10/25 07:21:21;;;;;;;7.60;1.58;;;;;;;13.28;68.71;98207.78;6332868;22;20022;-94
2023/10/25 07:23:47;;;;;;;5.40;1.65;;;;;;;13.33;68.75;98198.59;6333270;22;20007;-92
2023/10/25 07:26:21;;;;;;;6.97;1.08;;;;;;;13.37;68.50;98196.81;6340603;22;19999;-96
2023/10/25 07:28:46;;;;;;;6.72;1.33;;;;;;;13.43;68.18;98185.41;6353952;22;20077;-96
2023/10/25 07:31:12;;;;;;;11.07;1.80;;;;;;;13.36;68.13;98176.06;6355345;22;19983;-96
2023/10/25 07:33:40;;;;;;;7.78;1.52;;;;;;;13.50;68.22;98173.97;6356234;22;20007;-96
2023/10/25 07:36:07;;;;;;;4.15;1.55;;;;;;;13.49;68.17;98177.00;6331703;22;20001;-96
2023/10/25 07:38:33;;;;;;;3.33;1.10;;;;;;;13.63;67.71;98164.00;6331525;22;20007;-96
2023/10/25 07:40:58;;;;;;;8.30;1.48;;;;;;;13.65;68.14;98163.66;6358810;22;20014;-96
2023/10/25 07:43:24;;;;;;;5.30;1.40;;;;;;;13.69;67.69;98163.84;6357857;22;20003;-96
2023/10/25 07:45:52;;;;;;;9.55;1.70;;;;;;;13.74;67.63;98155.44;6358660;22;20013;-96
2023/10/25 07:48:20;;;;;;;3.75;1.00;;;;;;;13.82;67.38;98157.34;6357029;22;20003;-96
2023/10/25 07:50:47;;;;;;;7.43;1.70;;;;;;;13.81;67.11;98152.22;6357960;22;19995;-96
2023/10/25 07:53:13;;;;;;;9.27;1.50;;;;;;;13.82;67.07;98140.09;6354524;22;20057;-96
2023/10/25 07:55:41;;;;;;;4.18;0.95;;;;;;;13.78;67.36;98142.69;6344424;22;20475;-95
2023/10/25 07:58:07;;;;;;;9.02;1.48;;;;;;;13.87;67.09;98131.72;6307823;22;20003;-96
2023/10/25 08:00:33;;;;;;;3.90;1.02;;;;;;;13.86;67.68;98124.63;6335331;22;20443;-96
2023/10/25 08:02:59;;;;;;;4.22;1.40;;;;;;;13.86;67.51;98130.91;6307617;22;20018;-96
2023/10/25 08:05:25;;;;;;;6.00;0.90;;;;;;;13.89;66.95;98121.25;6335084;22;20006;-95
2023/10/25 08:07:50;;;;;;;5.28;1.17;;;;;;;13.83;67.03;98120.59;6335882;22;20367;-95
2023/10/25 08:10:15;;;;;;;2.70;0.98;;;;;;;13.94;66.99;98114.78;6334707;22;19994;-96
2023/10/25 08:12:41;;;;;;;6.15;1.75;;;;;;;13.86;67.25;98114.47;6306606;22;20351;-95
2023/10/25 08:15:07;;;;;;;4.10;1.65;;;;;;;13.88;66.46;98104.00;6334765;22;20010;-96
2023/10/25 08:17:32;;;;;;;6.32;1.10;;;;;;;13.69;67.32;98104.38;6306793;22;20082;-96
2023/10/25 08:19:57;;;;;;;4.10;0.95;;;;;;;13.77;67.17;98097.25;6334171;22;20010;-95
2023/10/25 08:22:23;;;;;;;5.28;1.30;;;;;;;13.70;67.36;98099.72;6333243;22;20026;-96
2023/10/25 08:24:48;;;;;;;3.13;0.90;;;;;;;13.84;67.34;98105.78;6333643;22;20007;-96
2023/10/25 08:27:13;;;;;;;6.45;1.10;;;;;;;13.85;67.20;98103.88;6334208;22;20030;-94
2023/10/25 08:29:39;;;;;;;2.63;1.17;;;;;;;13.80;67.26;98112.25;6334775;22;20063;-95
2023/10/25 08:32:05;;;;;;;3.60;0.90;;;;;;;13.79;67.25;98114.16;6334485;22;20006;-96
2023/10/25 08:34:30;;;;;;;3.88;1.15;;;;;;;13.80;67.20;98113.06;6335575;22;20151;-93
2023/10/25 08:36:56;;;;;;;3.03;1.00;;;;;;;13.74;66.94;98103.41;6332545;22;20086;-92
2023/10/25 08:39:22;;;;;;;5.15;0.98;;;;;;;13.81;66.80;98103.69;6332181;22;20002;-93
2023/10/25 08:41:47;;;;;;;8.88;1.23;;;;;;;13.91;66.64;98105.28;6332171;22;20500;-93
2023/10/25 08:44:13;;;;;;;4.57;1.75;;;;;;;13.90;67.50;98103.66;6332048;22;20003;-92
2023/10/25 08:46:40;;;;;;;4.93;1.05;;;;;;;13.94;67.13;98103.81;6333934;22;20089;-92
2023/10/25 08:49:05;;;;;;;1.73;0.70;;;;;;;13.96;66.59;98101.56;6337052;22;20107;-92
2023/10/25 08:51:30;;;;;;;2.60;0.85;;;;;;;13.96;66.92;98096.06;6335629;22;20455;-92
2023/10/25 08:53:59;;;;;;;4.47;1.02;;;;;;;13.95;66.71;98094.47;6338641;22;20007;-92
2023/10/25 08:56:25;;;;;;;2.63;0.65;;;;;;;14.00;66.42;98091.53;6339365;22;20560;-92
2023/10/25 08:58:51;;;;;;;2.78;1.20;;;;;;;14.03;66.83;98090.91;6335639;22;20409;-92
2023/10/25 09:01:17;;;;;;;5.05;0.68;;;;;;;14.05;66.77;98083.16;6304572;22;20009;-93
2023/10/25 09:03:43;;;;;;;3.30;0.85;;;;;;;14.08;66.08;98087.16;6332105;22;20427;-92
2023/10/25 09:06:10;;;;;;;6.68;0.82;;;;;;;14.09;66.55;98075.88;6331674;22;20019;-92
2023/10/25 09:08:36;;;;;;;2.55;0.80;;;;;;;14.16;66.14;98071.81;6331301;22;20007;-92
2023/10/25 09:11:03;;;;;;;2.80;0.70;;;;;;;14.14;66.22;98066.66;6331900;22;20059;-92
2023/10/25 09:13:34;;;;;;;3.90;0.80;;;;;;;14.19;65.92;98065.66;6331845;22;20007;-92
2023/10/25 09:16:04;;;;;;;3.40;1.00;;;;;;;14.24;65.96;98051.78;6332576;22;20014;-92
2023/10/25 09:18:31;;;;;;;2.40;0.63;;;;;;;14.17;66.47;98062.47;6331575;22;20034;-93
2023/10/25 09:20:57;;;;;;;3.38;1.17;;;;;;;14.19;66.31;98062.94;6331514;22;20010;-92
2023/10/25 09:23:22;;;;;;;2.95;0.88;;;;;;;14.12;66.06;98056.03;6331491;22;20065;-92
2023/10/25 09:25:49;;;;;;;2.83;0.98;;;;;;;14.21;65.50;98060.66;6331501;22;20042;-92
2023/10/25 09:28:16;;;;;;;3.03;0.77;;;;;;;14.21;65.82;98050.50;6331522;22;20002;-93
2023/10/25 09:30:42;;;;;;;2.53;0.80;;;;;;;14.35;65.32;98057.69;6304193;22;20071;-93
2023/10/25 09:33:08;;;;;;;6.60;1.27;;;;;;;14.21;65.49;98042.28;6331687;22;20479;-92
2023/10/25 09:35:33;;;;;;;3.58;0.60;;;;;;;14.26;65.39;98033.06;6304650;22;20249;-92
2023/10/25 09:37:59;;;;;;;2.38;0.80;;;;;;;14.22;65.64;98029.38;6331834;22;20007;-92
2023/10/25 09:40:25;;;;;;;6.38;1.02;;;;;;;14.29;65.14;98021.44;6303319;22;19995;-92
2023/10/25 09:42:56;;;;;;;2.78;0.52;;;;;;;14.38;64.78;98017.84;6331068;22;20363;-92
2023/10/25 09:45:28;;;;;;;2.55;0.85;;;;;;;14.35;64.96;98011.88;6333096;22;20070;-92
2023/10/25 09:47:59;;;;;;;6.60;1.75;;;;;;;14.24;65.15;98002.44;6332526;22;20006;-92
2023/10/25 09:50:32;;;;;;;2.20;0.90;;;;;;;14.10;65.72;97999.94;6331648;22;20339;-93
2023/10/25 09:53:10;;;;;;;2.50;0.77;;;;;;;14.13;65.47;98002.03;6332948;22;20010;-93
2023/10/25 09:55:37;;;;;;;2.75;0.93;;;;;;;14.11;65.49;97993.34;6333751;22;20037;-93
2023/10/25 09:58:04;;;;;;;2.92;0.70;;;;;;;14.19;65.66;97988.94;6333833;22;20480;-92
2023/10/25 10:00:30;;;;;;;1.50;0.88;;;;;;;14.17;65.28;97986.53;6333476;22;19999;-92
2023/10/25 10:03:06;;;;;;;3.17;1.25;;;;;;;14.20;65.40;97987.78;6333063;22;20144;-92
2023/10/25 10:05:46;;;;;;;3.28;1.08;;;;;;;14.22;65.19;97977.31;6306144;22;20010;-94
2023/10/25 10:08:16;;;;;;;4.53;1.13;;;;;;;14.28;65.64;97980.66;6333130;22;20014;-92
2023/10/25 10:10:55;;;;;;;3.60;0.95;;;;;;;14.20;65.59;97974.91;6332973;22;20010;-92
2023/10/25 10:13:21;;;;;;;3.88;1.20;;;;;;;14.14;66.59;97976.22;6333477;22;20421;-92
2023/10/25 10:16:08;;;;;;;4.22;1.05;;;;;;;14.16;66.34;97968.47;6333591;22;19999;-92
2023/10/25 10:18:35;;;;;;;2.60;1.13;;;;;;;14.10;66.37;97965.13;6333637;22;20542;-93
2023/10/25 10:21:06;;;;;;;4.63;1.15;;;;;;;14.10;67.04;97956.91;6333388;22;20015;-92
2023/10/25 10:23:39;;;;;;;2.45;0.82;;;;;;;14.18;66.67;97957.19;6333572;22;20015;-93
2023/10/25 10:26:08;;;;;;;11.07;2.20;;;;;;;14.15;66.73;97950.44;6334054;22;20017;-93
2023/10/25 10:28:43;;;;;;;5.85;1.05;;;;;;;13.97;67.20;97938.81;6306038;22;20006;-92
2023/10/25 10:31:11;;;;;;;4.50;1.80;;;;;;;14.18;67.27;97921.56;6333276;22;20034;-92
2023/10/25 10:33:48;;;;;;;3.17;1.33;;;;;;;13.96;68.20;97927.03;6306277;22;20007;-91
2023/10/25 10:36:27;;;;;;;2.80;1.42;;;;;;;13.98;68.13;97915.75;6332705;22;20011;-93
2023/10/25 10:39:16;;;;;;;2.65;1.15;;;;;;;14.17;68.40;97906.25;6333166;22;20082;-92
2023/10/25 10:41:42;;;;;;;2.30;0.95;;;;;;;14.20;68.48;97902.84;6333427;22;20006;-92
2023/10/25 10:44:08;;;;;;;3.70;1.00;;;;;;;14.06;68.90;97898.44;6333295;22;20006;-92
2023/10/25 10:46:59;;;;;;;3.08;0.70;;;;;;;14.20;68.35;97889.13;6306088;22;20010;-92
2023/10/25 10:49:29;;;;;;;4.53;0.90;;;;;;;14.17;68.70;97890.63;6334107;22;20027;-92
2023/10/25 10:51:55;;;;;;;3.95;1.30;;;;;;;14.27;68.20;97880.38;6332833;22;20025;-92
2023/10/25 16:16:41;;;;;;;12.32;6.55;;;;;;;14.01;77.49;97447.41;6328574;22;20023;-94
2023/10/25 16:19:06;;;;;;;10.65;5.60;;;;;;;13.93;77.90;97451.09;6310352;22;20019;-95
2023/10/25 16:21:31;;;;;;;9.23;5.50;;;;;;;13.94;77.75;97451.88;6335418;22;20093;-94
2023/10/25 16:23:57;;;;;;;10.97;6.80;;;;;;;13.95;77.69;97456.25;6305583;22;20026;-94
2023/10/25 16:26:22;;;;;;;10.93;6.93;;;;;;;13.99;77.94;97443.44;6331916;22;20410;-94
2023/10/25 16:28:48;;;;;;;10.93;6.90;;;;;;;13.94;77.70;97451.88;6332990;22;20007;-93
2023/10/25 16:31:13;;;;;;;12.52;8.30;;;;;;;13.99;77.82;97449.72;6332192;22;20015;-94
2023/10/25 16:33:40;;;;;;;22.38;18.63;;;;;;;13.91;77.88;97452.59;6332396;22;20042;-94
2023/10/25 16:36:08;;;;;;;16.60;11.43;;;;;;;13.89;78.05;97450.97;6332042;22;20022;-94
2023/10/25 16:38:34;;;;;;;12.50;10.00;;;;;;;13.85;78.02;97439.09;6332227;22;20030;-93
2023/10/25 16:41:04;;;;;;;10.13;6.97;;;;;;;13.95;77.85;97442.53;6304522;22;20021;-93
2023/10/25 16:43:30;;;;;;;13.80;8.07;;;;;;;13.98;77.79;97442.66;6332736;22;20010;-94
2023/10/25 16:46:10;;;;;;;11.68;7.60;;;;;;;13.99;77.63;97443.44;6331851;22;20037;-92
2023/10/25 16:48:38;;;;;;;13.52;8.05;;;;;;;13.89;78.27;97434.53;6331286;22;20022;-93
2023/10/25 16:51:14;;;;;;;12.93;9.18;;;;;;;13.84;78.35;97443.00;6303837;22;20060;-92
2023/10/25 16:53:43;;;;;;;9.15;5.50;;;;;;;13.95;78.12;97434.31;6331577;22;20003;-92
2023/10/25 16:56:08;;;;;;;11.15;5.95;;;;;;;13.92;78.24;97440.47;6332127;22;20007;-93
2023/10/25 16:58:34;;;;;;;13.77;6.50;;;;;;;13.89;78.17;97439.25;6332387;22;20204;-94
2023/10/25 17:00:59;;;;;;;12.55;6.57;;;;;;;13.91;78.23;97447.09;6331998;22;20009;-94
2023/10/25 17:03:25;;;;;;;13.48;6.82;;;;;;;13.89;78.32;97444.72;6331473;22;20037;-93
2023/10/25 17:05:51;;;;;;;10.52;5.28;;;;;;;13.94;78.52;97446.41;6331874;22;20023;-92
2023/10/25 17:08:17;;;;;;;12.43;7.20;;;;;;;13.92;78.16;97454.97;6331499;22;20015;-93
2023/10/25 17:10:42;;;;;;;8.68;6.07;;;;;;;13.94;77.92;97447.22;6332012;22;20006;-93
2023/10/25 17:13:07;;;;;;;10.85;7.05;;;;;;;13.96;78.10;97449.59;6331435;22;20082;-93
2023/10/25 17:15:32;;;;;;;14.70;8.00;;;;;;;13.99;78.14;97448.94;6331766;22;20026;-93
2023/10/25 17:17:58;;;;;;;12.50;6.35;;;;;;;13.96;78.32;97433.97;6331771;22;20691;-93
2023/10/25 17:20:23;;;;;;;10.85;6.70;;;;;;;13.93;78.43;97444.81;6331196;22;20467;-93
2023/10/25 17:22:48;;;;;;;12.57;7.47;;;;;;;13.96;78.06;97438.66;6332240;22;20412;-94
2023/10/25 17:25:14;;;;;;;10.70;6.22;;;;;;;13.94;78.42;97440.94;6332009;22;20003;-94
2023/10/25 17:27:40;;;;;;;13.32;8.10;;;;;;;13.91;78.65;97439.69;6331815;22;20013;-94
2023/10/25 17:30:06;;;;;;;11.38;6.47;;;;;;;13.85;78.57;97439.09;6331539;22;20598;-93
2023/10/25 17:32:32;;;;;;;10.93;5.53;;;;;;;13.93;78.15;97444.81;6331830;22;20010;-94
2023/10/25 17:34:57;;;;;;;9.65;6.25;;;;;;;13.93;78.51;97442.09;6331756;22;20336;-93
2023/10/25 17:37:22;;;;;;;11.65;6.55;;;;;;;13.82;78.68;97439.00;6332071;22;20010;-93
2023/10/25 17:39:48;;;;;;;10.93;6.38;;;;;;;13.89;78.65;97429.06;6332209;22;20010;-93
2023/10/25 17:42:13;;;;;;;15.65;6.80;;;;;;;13.83;78.42;97427.69;6332000;22;20533;-92
2023/10/25 17:44:39;;;;;;;12.57;6.78;;;;;;;13.79;78.70;97436.97;6331861;22;20037;-93
2023/10/25 17:47:04;;;;;;;8.85;5.50;;;;;;;13.78;78.68;97427.94;6332815;22;20034;-93
2023/10/25 17:49:30;;;;;;;9.38;5.40;;;;;;;13.83;78.84;97432.41;6332230;22;20006;-93
2023/10/25 17:51:57;;;;;;;10.15;5.60;;;;;;;13.84;78.73;97426.56;6332028;22;20010;-93
2023/10/25 17:54:22;;;;;;;12.07;5.20;;;;;;;13.80;78.65;97424.84;6333367;22;20006;-93
2023/10/25 17:56:48;;;;;;;9.93;5.57;;;;;;;13.88;78.75;97430.22;6331623;22;20104;-93
2023/10/25 17:59:13;;;;;;;8.80;4.78;;;;;;;13.86;78.75;97424.28;6332688;22;20003;-93
2023/10/25 18:01:38;;;;;;;10.48;4.43;;;;;;;13.73;79.42;97426.22;6331986;22;20026;-93
2023/10/25 18:04:04;;;;;;;9.23;4.40;;;;;;;13.78;78.83;97422.47;6331262;22;20468;-93
2023/10/25 18:06:30;;;;;;;10.00;5.93;;;;;;;13.88;78.92;97424.75;6332552;22;20165;-92
2023/10/25 18:08:55;;;;;;;8.23;4.78;;;;;;;13.82;78.63;97431.59;6331512;22;20011;-92
2023/10/25 18:11:22;;;;;;;11.32;5.68;;;;;;;13.92;78.71;97427.59;6331536;22;20371;-92
2023/10/25 18:13:50;;;;;;;10.48;6.53;;;;;;;13.85;78.60;97430.13;6332407;22;20034;-92
2023/10/25 18:16:15;;;;;;;10.98;6.00;;;;;;;13.97;78.34;97430.06;6333185;22;20007;-93
2023/10/25 18:18:41;;;;;;;10.85;7.00;;;;;;;13.92;78.63;97427.59;6334093;22;20101;-94
2023/10/25 18:21:06;;;;;;;9.05;5.40;;;;;;;13.84;78.67;97426.56;6333957;22;20454;-92
2023/10/25 18:23:31;;;;;;;9.93;5.72;;;;;;;13.94;78.48;97424.50;6333580;22;20465;-93
2023/10/25 18:25:57;;;;;;;13.13;7.05;;;;;;;13.86;79.15;97421.56;6333392;22;20523;-92
2023/10/25 18:28:22;;;;;;;9.38;5.78;;;;;;;13.93;78.83;97428.38;6333202;22;20416;-92
2023/10/25 18:30:52;;;;;;;11.00;6.90;;;;;;;13.91;78.67;97430.69;6333810;22;20059;-93
2023/10/25 18:33:18;;;;;;;14.98;9.43;;;;;;;13.97;78.63;97435.56;6333069;22;20505;-92
2023/10/25 18:35:46;;;;;;;14.13;9.23;;;;;;;13.90;78.49;97432.59;6333193;22;20302;-94
2023/10/25 18:38:12;;;;;;;11.82;6.90;;;;;;;13.88;78.74;97435.69;6335417;22;20003;-92
2023/10/25 18:40:37;;;;;;;13.55;6.65;;;;;;;13.97;78.51;97432.81;6338254;22;20082;-93
2023/10/25 18:43:03;;;;;;;10.80;6.70;;;;;;;13.87;78.44;97427.84;6310441;22;20091;-93
2023/10/25 18:45:28;;;;;;;20.05;8.40;;;;;;;13.62;79.39;97427.84;6334454;22;20056;-93
2023/10/25 18:47:53;;;;;;;13.80;7.78;;;;;;;13.59;79.93;97432.06;6333286;22;20011;-92
2023/10/25 18:50:19;;;;;;;8.82;5.32;;;;;;;13.70;79.95;97426.13;6332727;22;20006;-94
2023/10/25 18:52:44;;;;;;;7.18;4.40;;;;;;;13.63;79.66;97429.41;6333200;22;20006;-93
2023/10/25 18:55:12;;;;;;;8.30;4.47;;;;;;;13.79;79.74;97421.31;6333467;22;20007;-93
2023/10/25 18:57:37;;;;;;;7.55;4.57;;;;;;;13.98;78.75;97425.41;6333658;22;20011;-94
2023/10/25 19:00:05;;;;;;;10.23;6.80;;;;;;;13.99;79.06;97424.28;6333342;22;20006;-94
2023/10/25 19:02:31;;;;;;;10.90;7.18;;;;;;;14.01;79.15;97427.47;6332862;22;20534;-93
2023/10/25 19:04:58;;;;;;;10.77;6.90;;;;;;;14.04;78.99;97426.75;6334275;22;20003;-93
2023/10/25 19:07:25;;;;;;;14.40;7.90;;;;;;;14.09;79.17;97423.00;6334012;22;20007;-94
2023/10/25 19:09:51;;;;;;;10.77;7.22;;;;;;;14.10;79.14;97422.66;6333159;22;20260;-93
2023/10/25 19:12:18;;;;;;;7.90;5.75;;;;;;;14.07;78.76;97428.84;6333762;22;20011;-93
2023/10/25 19:14:44;;;;;;;9.95;5.80;;;;;;;14.12;78.70;97420.34;6333762;22;20081;-94
2023/10/25 19:17:10;;;;;;;13.00;6.05;;;;;;;14.05;79.01;97420.16;6333383;22;20064;-93
2023/10/25 19:19:35;;;;;;;11.32;5.70;;;;;;;14.10;79.23;97424.59;6333612;22;20332;-94
2023/10/25 19:22:01;;;;;;;7.82;4.88;;;;;;;14.22;79.02;97434.72;6333365;22;20010;-93
2023/10/25 19:24:28;;;;;;;8.45;5.38;;;;;;;14.18;78.69;97428.31;6332941;22;20006;-93
2023/10/25 19:26:54;;;;;;;6.65;4.72;;;;;;;14.17;78.71;97427.56;6333195;22;19999;-93
2023/10/25 19:29:19;;;;;;;6.78;4.43;;;;;;;14.22;78.91;97432.78;6333253;22;20098;-92
2023/10/25 19:31:47;;;;;;;7.75;4.10;;;;;;;14.15;78.90;97434.50;6333455;22;20018;-93
2023/10/25 19:34:13;;;;;;;6.60;3.65;;;;;;;13.92;80.33;97435.00;6333631;22;20007;-93
2023/10/25 19:36:38;;;;;;;5.97;3.50;;;;;;;14.15;79.68;97431.78;6332797;22;20011;-95
2023/10/25 19:39:06;;;;;;;229.40;39.28;;;;;;;13.93;80.22;97429.19;6334179;22;20355;-93
2023/10/25 19:41:31;;;;;;;6.15;3.75;;;;;;;14.10;80.05;97430.88;6333502;22;20003;-93
2023/10/25 19:43:58;;;;;;;6.97;3.67;;;;;;;14.13;79.95;97443.09;6332811;22;20007;-93
2023/10/25 19:46:23;;;;;;;8.00;4.47;;;;;;;14.21;79.96;97444.91;6332762;22;20003;-93
2023/10/25 19:48:48;;;;;;;8.07;4.43;;;;;;;14.21;79.64;97444.91;6305716;22;20055;-93
2023/10/25 19:51:15;;;;;;;11.77;5.30;;;;;;;14.10;80.16;97441.03;6332390;22;20009;-94
2023/10/25 19:53:41;;;;;;;6.63;3.60;;;;;;;14.06;80.49;97440.91;6305331;22;20019;-92
2023/10/25 19:56:07;;;;;;;5.47;3.05;;;;;;;14.03;80.76;97449.84;6332881;22;20064;-93
2023/10/25 19:58:32;;;;;;;7.97;2.92;;;;;;;13.98;81.05;97450.06;6333486;22;20002;-94
2023/10/25 20:00:58;;;;;;;5.90;2.97;;;;;;;13.86;81.99;97450.88;6332833;22;20085;-93
2023/10/25 20:03:24;;;;;;;7.63;2.72;;;;;;;13.99;81.04;97449.72;6333050;22;20117;-93
2023/10/25 20:05:49;;;;;;;5.32;2.97;;;;;;;14.05;81.14;97449.50;6332646;22;20007;-93
2023/10/25 20:08:19;;;;;;;4.88;2.38;;;;;;;14.12;81.08;97452.44;6305558;22;20443;-94
2023/10/25 20:10:44;;;;;;;4.97;2.60;;;;;;;14.04;80.88;97456.91;6332286;22;20082;-94
2023/10/25 20:13:10;;;;;;;6.75;2.40;;;;;;;14.02;81.40;97453.72;6332787;22;20022;-93
